createdAt,value
2022-12-16T00:02:06.273Z,55.74
2022-12-16T00:04:35.538Z,55.68
2022-12-16T00:07:06.387Z,55.82
2022-12-16T00:09:38.738Z,56.17
2022-12-16T00:12:08.469Z,56.48
2022-12-16T00:14:41.220Z,56.54
2022-12-16T00:17:10.005Z,56.42
2022-12-16T00:19:41.877Z,56.45
2022-12-16T00:22:13.067Z,56.41
2022-12-16T00:24:47.083Z,56.39
2022-12-16T00:27:16.236Z,56.59
2022-12-16T00:29:46.087Z,56.52
2022-12-16T00:32:18.837Z,56.75
2022-12-16T00:34:48.885Z,56.90
2022-12-16T00:37:18.493Z,56.93
2022-12-16T00:39:48.431Z,57.00
2022-12-16T00:42:17.608Z,56.96
2022-12-16T00:44:46.302Z,56.95
2022-12-16T00:47:15.134Z,56.99
2022-12-16T00:49:44.380Z,56.62
2022-12-16T00:52:13.739Z,56.12
2022-12-16T00:54:43.029Z,55.68
2022-12-16T00:57:24.327Z,55.91
2022-12-16T00:59:56.907Z,56.05
2022-12-16T01:02:27.422Z,56.54
2022-12-16T01:04:57.543Z,57.08
2022-12-16T01:07:33.269Z,57.16
2022-12-16T01:10:16.833Z,57.20
2022-12-16T01:12:48.465Z,57.48
2022-12-16T01:15:18.270Z,57.79
2022-12-16T01:17:50.560Z,57.22
2022-12-16T01:20:20.273Z,56.63
2022-12-16T01:22:52.883Z,56.79
2022-12-16T01:25:28.205Z,56.92
2022-12-16T01:27:59.150Z,57.12
2022-12-16T01:30:28.262Z,57.83
2022-12-16T01:32:57.825Z,58.36
2022-12-16T01:38:23.071Z,58.54
2022-12-16T01:40:55.083Z,58.55
2022-12-16T01:43:30.811Z,58.41
2022-12-16T01:46:03.845Z,58.39
2022-12-16T01:48:47.536Z,58.40
2022-12-16T01:51:22.843Z,58.29
2022-12-16T01:53:57.584Z,58.29
2022-12-16T01:56:29.672Z,58.33
2022-12-16T01:59:01.796Z,58.22
2022-12-16T02:01:30.806Z,57.96
2022-12-16T02:04:04.185Z,57.92
2022-12-16T02:06:33.368Z,58.01
2022-12-16T02:09:06.492Z,58.04
2022-12-16T02:12:14.992Z,58.32
2022-12-16T02:15:00.596Z,58.27
2022-12-16T02:17:56.392Z,58.13
2022-12-16T02:21:11.535Z,58.28
2022-12-16T02:24:03.354Z,58.70
2022-12-16T02:26:54.773Z,58.26
2022-12-16T02:29:46.802Z,58.48
2022-12-16T02:32:27.632Z,58.29
2022-12-16T02:35:05.023Z,58.30
2022-12-16T02:37:42.257Z,58.25
2022-12-16T02:40:21.644Z,58.19
2022-12-16T02:42:55.237Z,58.21
2022-12-16T02:45:28.655Z,58.29
2022-12-16T02:47:59.397Z,58.44
2022-12-16T02:50:31.555Z,58.33
2022-12-16T02:53:02.390Z,58.18
2022-12-16T02:55:36.939Z,58.24
2022-12-16T02:58:21.422Z,58.26
2022-12-16T03:01:05.184Z,58.56
2022-12-16T03:03:41.618Z,58.90
2022-12-16T03:09:29.131Z,59.36
2022-12-16T03:12:08.299Z,59.43
2022-12-16T03:14:46.744Z,59.18
2022-12-16T03:17:20.814Z,59.16
2022-12-16T03:20:02.334Z,59.42
2022-12-16T03:22:35.343Z,59.49
2022-12-16T03:25:07.211Z,59.41
2022-12-16T03:27:55.661Z,59.28
2022-12-16T03:30:27.949Z,59.35
2022-12-16T03:33:02.439Z,59.29
2022-12-16T03:35:37.741Z,59.30
2022-12-16T03:38:09.949Z,59.17
2022-12-16T03:40:40.099Z,59.02
2022-12-16T03:43:11.425Z,58.79
2022-12-16T03:45:41.759Z,58.62
2022-12-16T03:48:12.902Z,58.57
2022-12-16T03:50:42.697Z,58.61
2022-12-16T03:53:11.631Z,58.69
2022-12-16T03:55:39.993Z,58.97
2022-12-16T03:58:08.576Z,59.07
2022-12-16T04:00:37.989Z,59.63
2022-12-16T04:03:06.895Z,59.86
2022-12-16T04:05:51.765Z,59.88
2022-12-16T04:08:24.455Z,59.78
2022-12-16T04:11:11.460Z,59.90
2022-12-16T04:13:59.272Z,59.82
2022-12-16T04:16:48.067Z,59.73
2022-12-16T04:19:47.641Z,59.89
2022-12-16T04:22:40.292Z,60.00
2022-12-16T04:25:17.429Z,60.02
2022-12-16T04:27:49.295Z,59.86
2022-12-16T04:30:22.371Z,59.94
2022-12-16T04:33:27.318Z,59.82
2022-12-16T04:36:13.992Z,60.30
2022-12-16T04:39:15.030Z,59.83
2022-12-16T04:42:03.110Z,60.05
2022-12-16T04:44:50.003Z,59.73
2022-12-16T04:47:36.691Z,59.35
2022-12-16T04:50:23.391Z,59.09
2022-12-16T04:53:15.310Z,58.92
2022-12-16T04:56:04.382Z,58.80
2022-12-16T04:58:54.152Z,59.27
2022-12-16T05:01:51.260Z,59.16
2022-12-16T05:04:41.532Z,59.10
2022-12-16T05:07:37.731Z,58.95
2022-12-16T05:10:26.131Z,58.78
2022-12-16T05:13:12.814Z,58.81
2022-12-16T05:16:12.969Z,58.85
2022-12-16T05:18:59.618Z,58.95
2022-12-16T05:21:46.535Z,58.76
2022-12-16T05:24:33.463Z,58.62
2022-12-16T05:27:24.877Z,58.59
2022-12-16T05:30:10.812Z,58.39
2022-12-16T05:32:58.129Z,58.38
2022-12-16T05:35:44.825Z,58.32
2022-12-16T05:38:32.047Z,58.33
2022-12-16T05:41:18.131Z,58.27
2022-12-16T07:16:55.839Z,59.31
2022-12-16T07:19:44.298Z,59.07
2022-12-16T07:22:51.216Z,59.08
2022-12-16T09:08:30.909Z,58.19
2022-12-16T09:11:19.619Z,58.22
2022-12-16T09:14:05.995Z,58.42
2022-12-16T09:16:51.811Z,58.54
2022-12-16T09:19:37.512Z,58.60
2022-12-16T09:22:23.379Z,58.64
2022-12-16T09:25:10.715Z,58.68
2022-12-16T09:27:57.099Z,58.68
2022-12-16T09:30:43.256Z,58.67
2022-12-16T09:33:29.123Z,58.64
2022-12-16T09:36:14.903Z,58.71
2022-12-16T09:39:00.653Z,58.61
2022-12-16T09:41:59.404Z,58.43
2022-12-16T09:48:05.411Z,58.01
2022-12-16T09:54:33.789Z,57.45
2022-12-16T09:57:23.981Z,57.39
2022-12-16T10:00:11.203Z,57.55
2022-12-16T10:03:01.864Z,57.33
2022-12-16T10:06:02.618Z,57.12
2022-12-16T10:08:58.631Z,57.09
2022-12-16T10:12:06.378Z,57.00
2022-12-16T10:14:59.249Z,57.06
2022-12-16T10:17:44.881Z,56.69
2022-12-16T10:20:38.786Z,56.90
2022-12-16T10:23:32.314Z,56.62
2022-12-16T10:26:24.846Z,56.63
2022-12-16T10:29:17.078Z,56.82
2022-12-16T10:32:04.294Z,56.67
2022-12-16T10:34:53.704Z,56.83
2022-12-16T10:37:48.661Z,56.89
2022-12-16T10:40:40.866Z,56.85
2022-12-16T10:43:35.147Z,56.94
2022-12-16T10:46:28.327Z,56.91
2022-12-16T10:49:15.769Z,56.81
2022-12-16T10:52:06.791Z,57.02
2022-12-16T10:55:00.572Z,56.86
2022-12-16T10:57:55.741Z,56.96
2022-12-16T11:00:59.106Z,57.06
2022-12-16T11:03:47.465Z,56.89
2022-12-16T11:06:40.986Z,56.92
2022-12-16T11:09:39.266Z,57.09
2022-12-16T11:12:43.136Z,56.23
2022-12-16T11:15:42.187Z,56.52
2022-12-16T11:18:30.742Z,56.53
2022-12-16T11:21:27.098Z,56.58
2022-12-16T11:24:29.931Z,56.88
2022-12-16T11:27:18.832Z,56.55
2022-12-16T11:30:15.580Z,56.76
2022-12-16T11:33:06.120Z,56.84
2022-12-16T11:35:55.991Z,56.88
2022-12-16T11:38:46.159Z,56.67
2022-12-16T11:41:46.786Z,56.56
2022-12-16T11:44:37.639Z,56.27
2022-12-16T11:47:45.855Z,56.36
2022-12-16T11:50:35.934Z,56.20
2022-12-16T11:53:25.723Z,56.32
2022-12-16T11:56:16.239Z,56.37
2022-12-16T11:59:06.784Z,56.52
2022-12-16T12:01:58.467Z,56.30
2022-12-16T12:04:44.525Z,56.39
2022-12-16T12:07:45.988Z,56.64
2022-12-16T12:10:58.022Z,56.26
2022-12-16T12:14:05.439Z,56.10
2022-12-16T12:17:02.157Z,55.51
2022-12-16T12:20:03.109Z,55.84
2022-12-16T12:22:53.867Z,55.96
2022-12-16T12:25:46.922Z,55.95
2022-12-16T12:28:46.942Z,56.13
2022-12-16T12:31:45.314Z,55.83
2022-12-16T12:34:41.683Z,55.99
2022-12-16T12:37:38.913Z,56.20
2022-12-16T12:40:38.819Z,55.89
2022-12-16T12:43:38.515Z,55.80
2022-12-16T12:46:32.937Z,56.22
2022-12-16T12:49:27.782Z,55.91
2022-12-16T12:52:27.180Z,55.84
2022-12-16T12:55:19.849Z,56.06
2022-12-16T12:58:08.248Z,56.17
2022-12-16T13:01:16.315Z,56.05
2022-12-16T13:04:07.569Z,56.02
2022-12-16T13:06:54.886Z,55.87
2022-12-16T13:09:46.387Z,55.78
2022-12-16T13:12:42.712Z,55.93
2022-12-16T13:15:30.647Z,55.36
2022-12-16T13:18:39.742Z,55.56
2022-12-16T13:21:59.304Z,55.46
2022-12-16T13:24:55.952Z,55.31
2022-12-16T13:27:42.882Z,55.58
2022-12-16T13:30:43.468Z,55.51
2022-12-16T13:33:45.999Z,55.86
2022-12-16T13:36:33.433Z,55.70
2022-12-16T13:39:41.931Z,56.14
2022-12-16T13:43:06.282Z,55.59
2022-12-16T13:45:55.365Z,55.31
2022-12-16T13:48:54.212Z,55.39
2022-12-16T13:52:25.758Z,55.12
2022-12-16T13:55:24.743Z,54.98
2022-12-16T13:58:22.927Z,55.35
2022-12-16T14:01:20.855Z,55.41
2022-12-16T14:04:10.422Z,55.56
2022-12-16T14:06:57.903Z,55.77
2022-12-16T14:09:50.900Z,55.71
2022-12-16T14:13:00.446Z,55.86
2022-12-16T14:15:54.530Z,55.77
2022-12-16T14:18:51.322Z,56.01
2022-12-16T14:21:45.981Z,56.22
2022-12-16T14:24:40.220Z,56.15
2022-12-16T14:27:32.558Z,56.08
2022-12-16T14:30:18.247Z,56.28
2022-12-16T14:33:06.103Z,56.54
2022-12-16T14:35:51.809Z,56.52
2022-12-16T14:38:42.178Z,56.49
2022-12-16T14:41:33.171Z,56.37
2022-12-16T14:44:20.090Z,56.24
2022-12-16T14:47:09.166Z,56.54
2022-12-16T14:50:09.529Z,56.57
2022-12-16T14:52:51.925Z,56.69
2022-12-16T14:55:44.880Z,56.88
2022-12-16T14:58:32.466Z,56.97
2022-12-16T15:01:23.839Z,57.20
2022-12-16T15:04:10.496Z,57.37
2022-12-16T15:07:01.824Z,57.29
2022-12-16T15:09:51.435Z,57.22
2022-12-16T15:12:42.426Z,57.27
2022-12-16T15:15:33.825Z,57.31
2022-12-16T15:18:21.750Z,57.47
2022-12-16T15:21:09.849Z,57.64
2022-12-16T15:23:59.971Z,58.46
2022-12-16T15:26:47.930Z,58.28
2022-12-16T15:29:51.383Z,57.94
2022-12-16T15:32:50.873Z,57.96
2022-12-16T15:35:50.957Z,58.04
2022-12-16T15:38:46.424Z,57.90
2022-12-16T15:41:45.653Z,57.88
2022-12-16T15:44:36.335Z,57.93
2022-12-16T15:47:24.477Z,58.08
2022-12-16T15:50:10.693Z,58.08
2022-12-16T15:52:59.020Z,58.27
2022-12-16T15:55:48.602Z,58.19
2022-12-16T15:58:41.787Z,58.42
2022-12-16T16:01:28.853Z,58.39
2022-12-16T16:04:15.883Z,58.50
2022-12-16T16:07:05.908Z,58.44
2022-12-16T16:09:55.277Z,58.32
2022-12-16T16:12:42.379Z,58.39
2022-12-16T16:15:40.803Z,58.45
2022-12-16T16:18:28.984Z,58.74
2022-12-16T16:21:15.077Z,58.98
2022-12-16T16:24:12.633Z,58.75
2022-12-16T16:26:59.546Z,58.87
2022-12-16T16:29:45.532Z,58.85
2022-12-16T16:32:32.881Z,59.09
2022-12-16T16:35:18.644Z,59.21
2022-12-16T16:38:04.792Z,59.12
2022-12-16T16:40:53.971Z,58.96
2022-12-16T16:43:41.630Z,59.11
2022-12-16T16:46:48.908Z,59.12
2022-12-16T16:49:42.213Z,59.11
2022-12-16T16:52:34.124Z,59.09
2022-12-16T16:55:21.798Z,59.06
2022-12-16T17:01:38.723Z,59.24
2022-12-16T17:04:24.908Z,59.37
2022-12-16T17:07:11.972Z,59.29
2022-12-16T17:09:58.062Z,59.36
2022-12-16T17:12:46.506Z,59.45
2022-12-16T17:15:35.812Z,59.67
2022-12-16T17:18:22.595Z,59.58
2022-12-16T17:28:16.044Z,59.59
2022-12-16T17:31:02.251Z,59.68
2022-12-16T17:33:48.147Z,59.72
2022-12-16T17:36:36.957Z,59.71
2022-12-16T17:39:24.227Z,59.50
2022-12-16T17:42:15.767Z,59.54
2022-12-16T17:45:01.561Z,59.73
2022-12-16T17:47:47.694Z,59.83
2022-12-16T17:50:33.918Z,59.71
2022-12-16T17:53:20.593Z,59.80
2022-12-16T17:56:06.254Z,60.14
2022-12-16T17:58:56.353Z,60.12
2022-12-16T18:01:42.781Z,60.22
2022-12-16T18:04:29.365Z,60.09
2022-12-16T18:07:15.219Z,60.45
2022-12-16T18:10:02.497Z,60.24
2022-12-16T18:12:48.636Z,60.40
2022-12-16T18:15:36.151Z,60.36
2022-12-16T18:18:23.084Z,60.42
2022-12-16T18:21:09.638Z,60.59
2022-12-16T18:23:55.564Z,60.62
2022-12-16T18:26:41.960Z,60.57
2022-12-16T18:29:27.472Z,60.60
2022-12-16T18:32:15.249Z,60.61
2022-12-16T18:35:04.303Z,60.55
2022-12-16T18:37:50.138Z,60.57
2022-12-16T18:40:35.736Z,60.48
2022-12-16T18:43:21.723Z,60.50
2022-12-16T18:46:10.393Z,60.56
2022-12-16T18:48:57.894Z,60.61
2022-12-16T18:51:43.406Z,60.74
2022-12-16T18:54:29.264Z,60.83
2022-12-16T18:57:14.924Z,60.72
2022-12-16T19:00:00.846Z,60.56
2022-12-16T19:02:46.574Z,60.64
2022-12-16T19:05:34.571Z,60.71
2022-12-16T19:08:20.656Z,60.87
2022-12-16T19:11:06.935Z,61.08
2022-12-16T19:13:52.578Z,60.86
2022-12-16T19:16:41.093Z,61.00
2022-12-16T19:19:26.703Z,60.70
2022-12-16T19:22:15.035Z,60.61
2022-12-16T19:25:00.757Z,60.74
2022-12-16T19:27:46.515Z,60.72
2022-12-16T19:30:33.218Z,60.58
2022-12-16T19:33:19.251Z,60.63
2022-12-16T19:36:04.758Z,60.50
2022-12-16T19:38:51.883Z,60.38
2022-12-16T19:41:38.206Z,60.33
2022-12-16T19:44:24.193Z,60.30
2022-12-16T19:47:09.925Z,60.27
2022-12-16T19:49:56.082Z,60.07
2022-12-16T19:52:42.415Z,59.95
2022-12-16T19:55:30.341Z,60.01
2022-12-16T19:58:30.754Z,59.96
2022-12-16T20:01:16.985Z,60.11
2022-12-16T20:04:03.164Z,60.30
2022-12-16T20:06:55.996Z,60.11
2022-12-16T20:09:45.189Z,60.31
2022-12-16T20:12:32.406Z,60.37
2022-12-16T20:15:18.368Z,60.11
2022-12-16T20:18:03.982Z,60.34
2022-12-16T20:20:49.800Z,60.51
2022-12-16T20:23:35.542Z,60.50
2022-12-16T20:26:21.462Z,60.42
2022-12-16T20:29:08.928Z,60.37
2022-12-16T20:31:55.886Z,60.28
2022-12-16T20:34:42.378Z,60.13
2022-12-16T20:37:28.916Z,60.03
2022-12-16T20:40:14.781Z,60.06
2022-12-16T20:43:00.798Z,60.04
2022-12-16T20:45:48.059Z,60.06
2022-12-16T20:48:35.622Z,60.25
2022-12-16T20:51:26.519Z,60.27
2022-12-16T20:54:13.358Z,60.15
2022-12-16T20:56:59.512Z,60.02
2022-12-16T20:59:45.507Z,60.07
2022-12-16T21:05:39.264Z,60.25
2022-12-16T21:08:25.115Z,60.14
2022-12-16T21:11:15.088Z,60.19
2022-12-16T21:14:00.670Z,60.16
2022-12-16T21:16:46.670Z,60.23
2022-12-16T21:19:35.230Z,60.22
2022-12-16T21:22:21.228Z,60.17
2022-12-16T21:25:06.898Z,60.47
2022-12-16T21:27:52.892Z,60.43
2022-12-16T21:30:38.414Z,60.54
2022-12-16T21:33:24.565Z,60.60
2022-12-16T21:36:12.018Z,60.61
2022-12-16T21:38:58.131Z,60.54
2022-12-16T21:41:43.815Z,60.55
2022-12-16T21:44:44.615Z,60.51
2022-12-16T21:47:30.506Z,60.78
2022-12-16T21:50:16.598Z,60.85
2022-12-16T21:53:05.837Z,60.93
2022-12-16T21:55:51.902Z,61.00
2022-12-16T21:58:37.746Z,60.97
2022-12-16T22:01:24.102Z,60.97
2022-12-16T22:04:10.051Z,60.96
2022-12-16T22:06:55.560Z,60.91
2022-12-16T22:09:43.333Z,60.77
2022-12-16T22:12:29.071Z,60.84
2022-12-16T22:15:15.051Z,60.84
2022-12-16T22:18:00.742Z,60.93
2022-12-16T22:20:46.746Z,60.89
2022-12-16T22:23:32.322Z,60.75
2022-12-16T22:26:20.169Z,60.77
2022-12-16T22:29:06.586Z,60.66
2022-12-16T22:31:52.397Z,60.68
2022-12-16T22:34:38.215Z,60.59
2022-12-16T22:37:24.078Z,60.78
2022-12-16T22:40:09.685Z,60.75
2022-12-16T22:42:57.020Z,60.66
2022-12-16T22:45:42.810Z,60.59
2022-12-16T22:48:30.541Z,60.57
2022-12-16T22:51:16.297Z,60.83
2022-12-16T22:54:02.124Z,60.72
2022-12-16T22:56:48.010Z,60.79
2022-12-16T22:59:35.239Z,60.76
2022-12-16T23:02:20.914Z,60.59
2022-12-16T23:05:07.006Z,60.51
2022-12-16T23:07:55.634Z,60.57
2022-12-16T23:10:42.989Z,60.40
2022-12-16T23:13:29.295Z,60.31
2022-12-16T23:16:20.363Z,60.38
2022-12-16T23:19:21.297Z,60.41
2022-12-16T23:22:07.668Z,60.53
2022-12-16T23:24:53.851Z,60.56
2022-12-16T23:27:39.935Z,60.39
2022-12-16T23:30:27.359Z,60.39
2022-12-16T23:33:17.081Z,60.58
2022-12-16T23:36:12.539Z,60.64
2022-12-16T23:39:03.291Z,60.66
2022-12-16T23:41:49.965Z,60.68
2022-12-16T23:44:38.295Z,60.66
2022-12-16T23:47:24.569Z,60.68
2022-12-16T23:50:15.794Z,60.71
2022-12-16T23:53:01.900Z,60.67
2022-12-16T23:55:47.806Z,60.80
2022-12-16T23:58:33.613Z,60.68
